sensor_id;sensor_type;location;lat;lon;timestamp;pressure;altitude;pressure_sealevel;temperature;humidity
17505;BME280;8870;50.950;11.762;2023-03-24T00:04:20;97345.94;;;11.61;100.00
17505;BME280;8870;50.950;11.762;2023-03-24T00:09:39;97342.88;;;11.64;100.00
17505;BME280;8870;50.950;11.762;2023-03-24T00:15:13;97337.25;;;11.66;100.00
17505;BME280;8870;50.950;11.762;2023-03-24T00:20:36;97331.91;;;11.72;100.00
17505;BME280;8870;50.950;11.762;2023-03-24T00:26:10;97332.34;;;11.76;100.00
17505;BME280;8870;50.950;11.762;2023-03-24T00:31:29;97323.44;;;11.76;100.00
17505;BME280;8870;50.950;11.762;2023-03-24T00:37:05;97321.56;;;11.76;100.00
17505;BME280;8870;50.950;11.762;2023-03-24T00:42:23;97308.06;;;11.76;100.00
17505;BME280;8870;50.950;11.762;2023-03-24T00:47:54;97307.63;;;11.72;100.00
17505;BME280;8870;50.950;11.762;2023-03-24T00:53:28;97301.22;;;11.74;100.00
17505;BME280;8870;50.950;11.762;2023-03-24T00:58:47;97305.44;;;11.83;100.00
17505;BME280;8870;50.950;11.762;2023-03-24T01:04:20;97302.13;;;11.81;100.00
17505;BME280;8870;50.950;11.762;2023-03-24T01:09:44;97306.03;;;11.78;100.00
17505;BME280;8870;50.950;11.762;2023-03-24T01:15:20;97289.00;;;11.78;100.00
17505;BME280;8870;50.950;11.762;2023-03-24T01:20:40;97287.09;;;11.71;100.00
17505;BME280;8870;50.950;11.762;2023-03-24T01:26:15;97287.09;;;11.71;100.00
17505;BME280;8870;50.950;11.762;2023-03-24T01:31:34;97280.28;;;11.76;100.00
17505;BME280;8870;50.950;11.762;2023-03-24T01:37:06;97278.31;;;11.91;100.00
17505;BME280;8870;50.950;11.762;2023-03-24T01:42:27;97269.78;;;11.94;100.00
17505;BME280;8870;50.950;11.762;2023-03-24T01:47:59;97267.28;;;12.21;100.00
17505;BME280;8870;50.950;11.762;2023-03-24T01:53:24;97242.88;;;12.49;100.00
17505;BME280;8870;50.950;11.762;2023-03-24T01:59:04;97241.06;;;12.63;100.00
17505;BME280;8870;50.950;11.762;2023-03-24T02:04:40;97240.19;;;12.56;100.00
17505;BME280;8870;50.950;11.762;2023-03-24T02:10:23;97220.66;;;12.54;100.00
17505;BME280;8870;50.950;11.762;2023-03-24T02:15:53;97244.78;;;12.56;100.00
17505;BME280;8870;50.950;11.762;2023-03-24T02:27:33;97218.31;;;12.31;100.00
17505;BME280;8870;50.950;11.762;2023-03-24T02:39:46;97197.22;;;12.06;100.00
17505;BME280;8870;50.950;11.762;2023-03-24T02:45:26;97194.66;;;11.91;100.00
17505;BME280;8870;50.950;11.762;2023-03-24T02:51:05;97209.94;;;11.84;100.00
17505;BME280;8870;50.950;11.762;2023-03-24T02:56:44;97207.81;;;11.72;100.00
17505;BME280;8870;50.950;11.762;2023-03-24T03:02:30;97199.47;;;11.61;100.00
17505;BME280;8870;50.950;11.762;2023-03-24T03:08:05;97201.94;;;11.62;100.00
17505;BME280;8870;50.950;11.762;2023-03-24T03:13:30;97192.00;;;11.63;100.00
17505;BME280;8870;50.950;11.762;2023-03-24T03:19:06;97174.34;;;11.60;100.00
17505;BME280;8870;50.950;11.762;2023-03-24T03:24:31;97160.47;;;11.63;100.00
17505;BME280;8870;50.950;11.762;2023-03-24T03:30:12;97148.03;;;11.69;100.00
17505;BME280;8870;50.950;11.762;2023-03-24T03:35:34;97143.06;;;11.72;100.00
17505;BME280;8870;50.950;11.762;2023-03-24T03:41:08;97119.41;;;11.75;100.00
17505;BME280;8870;50.950;11.762;2023-03-24T03:46:29;97109.66;;;11.74;100.00
17505;BME280;8870;50.950;11.762;2023-03-24T03:52:09;97103.88;;;11.77;100.00
17505;BME280;8870;50.950;11.762;2023-03-24T03:57:42;97098.69;;;11.75;100.00
17505;BME280;8870;50.950;11.762;2023-03-24T04:03:34;97094.94;;;11.76;100.00
17505;BME280;8870;50.950;11.762;2023-03-24T04:09:38;97095.38;;;11.80;100.00
17505;BME280;8870;50.950;11.762;2023-03-24T04:15:10;97083.13;;;11.84;100.00
17505;BME280;8870;50.950;11.762;2023-03-24T04:21:26;97085.81;;;11.84;100.00
17505;BME280;8870;50.950;11.762;2023-03-24T04:26:54;97079.59;;;11.77;100.00
17505;BME280;8870;50.950;11.762;2023-03-24T04:32:31;97082.03;;;11.71;100.00
17505;BME280;8870;50.950;11.762;2023-03-24T04:38:04;97079.59;;;11.77;100.00
17505;BME280;8870;50.950;11.762;2023-03-24T04:43:55;97074.16;;;11.70;100.00
17505;BME280;8870;50.950;11.762;2023-03-24T04:49:31;97055.50;;;11.68;100.00
17505;BME280;8870;50.950;11.762;2023-03-24T04:55:23;97048.44;;;11.67;100.00
17505;BME280;8870;50.950;11.762;2023-03-24T05:00:46;97048.44;;;11.67;100.00
17505;BME280;8870;50.950;11.762;2023-03-24T05:06:22;97055.88;;;11.65;100.00
17505;BME280;8870;50.950;11.762;2023-03-24T05:11:43;97050.09;;;11.68;100.00
17505;BME280;8870;50.950;11.762;2023-03-24T05:17:34;97050.53;;;11.72;100.00
17505;BME280;8870;50.950;11.762;2023-03-24T05:22:53;97040.53;;;11.72;100.00
17505;BME280;8870;50.950;11.762;2023-03-24T05:28:28;97026.66;;;11.76;100.00
17505;BME280;8870;50.950;11.762;2023-03-24T05:33:47;97027.28;;;11.78;100.00
17505;BME280;8870;50.950;11.762;2023-03-24T05:39:36;97028.34;;;11.83;100.00
17505;BME280;8870;50.950;11.762;2023-03-24T05:45:24;97019.03;;;11.93;100.00
17505;BME280;8870;50.950;11.762;2023-03-24T05:51:07;97021.16;;;12.04;100.00
17505;BME280;8870;50.950;11.762;2023-03-24T05:56:34;97011.81;;;12.13;100.00
17505;BME280;8870;50.950;11.762;2023-03-24T06:02:16;97009.75;;;12.22;100.00
17505;BME280;8870;50.950;11.762;2023-03-24T06:07:40;97014.53;;;12.33;100.00
17505;BME280;8870;50.950;11.762;2023-03-24T06:13:15;97011.19;;;12.45;100.00
17505;BME280;8870;50.950;11.762;2023-03-24T06:18:37;97013.69;;;12.53;100.00
17505;BME280;8870;50.950;11.762;2023-03-24T06:24:28;97018.66;;;12.63;100.00
17505;BME280;8870;50.950;11.762;2023-03-24T06:29:48;97001.81;;;12.74;100.00
17505;BME280;8870;50.950;11.762;2023-03-24T06:35:22;97022.78;;;12.92;100.00
17505;BME280;8870;50.950;11.762;2023-03-24T06:40:44;97011.34;;;13.04;100.00
17505;BME280;8870;50.950;11.762;2023-03-24T06:46:15;97009.47;;;13.11;100.00
17505;BME280;8870;50.950;11.762;2023-03-24T06:51:42;97008.19;;;13.20;100.00
17505;BME280;8870;50.950;11.762;2023-03-24T06:57:19;97028.94;;;13.26;100.00
17505;BME280;8870;50.950;11.762;2023-03-24T07:02:57;97023.53;;;13.26;100.00
17505;BME280;8870;50.950;11.762;2023-03-24T07:08:51;97027.50;;;13.31;100.00
17505;BME280;8870;50.950;11.762;2023-03-24T07:14:09;97022.69;;;13.33;100.00
17505;BME280;8870;50.950;11.762;2023-03-24T07:19:44;97012.91;;;13.32;100.00
17505;BME280;8870;50.950;11.762;2023-03-24T07:25:23;97011.00;;;13.39;100.00
17505;BME280;8870;50.950;11.762;2023-03-24T07:31:06;97013.34;;;13.29;100.00
17505;BME280;8870;50.950;11.762;2023-03-24T07:36:33;97041.84;;;13.24;100.00
17505;BME280;8870;50.950;11.762;2023-03-24T07:42:07;97036.03;;;13.21;100.00
17505;BME280;8870;50.950;11.762;2023-03-24T07:47:52;97058.53;;;13.15;100.00
17505;BME280;8870;50.950;11.762;2023-03-24T07:53:25;97049.38;;;13.16;100.00
17505;BME280;8870;50.950;11.762;2023-03-24T07:59:08;97085.13;;;13.18;100.00
17505;BME280;8870;50.950;11.762;2023-03-24T08:04:26;97068.47;;;13.28;100.00
17505;BME280;8870;50.950;11.762;2023-03-24T08:10:26;97075.13;;;13.32;100.00
17505;BME280;8870;50.950;11.762;2023-03-24T08:15:47;97057.84;;;13.33;100.00
17505;BME280;8870;50.950;11.762;2023-03-24T08:21:18;97071.78;;;13.50;100.00
17505;BME280;8870;50.950;11.762;2023-03-24T08:26:36;97068.41;;;13.61;100.00
17505;BME280;8870;50.950;11.762;2023-03-24T08:32:09;97060.47;;;13.60;100.00
17505;BME280;8870;50.950;11.762;2023-03-24T08:37:28;97076.69;;;13.66;100.00
17505;BME280;8870;50.950;11.762;2023-03-24T08:43:00;97064.41;;;13.70;100.00
17505;BME280;8870;50.950;11.762;2023-03-24T08:48:22;97057.50;;;13.81;100.00
17505;BME280;8870;50.950;11.762;2023-03-24T08:53:54;97051.16;;;13.94;100.00
17505;BME280;8870;50.950;11.762;2023-03-24T08:59:25;97050.72;;;14.04;100.00
17505;BME280;8870;50.950;11.762;2023-03-24T09:04:46;97053.94;;;14.20;100.00
17505;BME280;8870;50.950;11.762;2023-03-24T09:10:17;97042.25;;;14.51;100.00
17505;BME280;8870;50.950;11.762;2023-03-24T09:15:36;97055.00;;;14.76;100.00
17505;BME280;8870;50.950;11.762;2023-03-24T09:21:12;97064.75;;;14.84;100.00
17505;BME280;8870;50.950;11.762;2023-03-24T09:26:30;97068.53;;;15.01;100.00
17505;BME280;8870;50.950;11.762;2023-03-24T09:32:01;97055.63;;;15.22;100.00
17505;BME280;8870;50.950;11.762;2023-03-24T09:37:22;97045.16;;;15.25;100.00
17505;BME280;8870;50.950;11.762;2023-03-24T09:42:57;97043.00;;;15.09;100.00
17505;BME280;8870;50.950;11.762;2023-03-24T09:48:20;97054.16;;;15.19;100.00
17505;BME280;8870;50.950;11.762;2023-03-24T09:54:03;97059.06;;;15.10;100.00
17505;BME280;8870;50.950;11.762;2023-03-24T09:59:38;97065.88;;;14.94;100.00
17505;BME280;8870;50.950;11.762;2023-03-24T10:04:57;97054.94;;;14.83;100.00
17505;BME280;8870;50.950;11.762;2023-03-24T10:10:35;97063.22;;;14.88;100.00
17505;BME280;8870;50.950;11.762;2023-03-24T10:16:03;97058.78;;;15.19;100.00
17505;BME280;8870;50.950;11.762;2023-03-24T10:21:39;97070.00;;;15.41;100.00
17505;BME280;8870;50.950;11.762;2023-03-24T10:27:12;97059.41;;;15.58;100.00
17505;BME280;8870;50.950;11.762;2023-03-24T10:32:47;97065.63;;;15.77;100.00
17505;BME280;8870;50.950;11.762;2023-03-24T10:38:14;97041.59;;;16.11;100.00
17505;BME280;8870;50.950;11.762;2023-03-24T10:43:51;97052.16;;;16.31;100.00
17505;BME280;8870;50.950;11.762;2023-03-24T10:49:15;97052.97;;;16.20;100.00
17505;BME280;8870;50.950;11.762;2023-03-24T10:54:53;97070.81;;;16.16;100.00
17505;BME280;8870;50.950;11.762;2023-03-24T11:00:21;97090.44;;;15.81;100.00
17505;BME280;8870;50.950;11.762;2023-03-24T11:05:58;97092.06;;;15.07;100.00
17505;BME280;8870;50.950;11.762;2023-03-24T11:11:28;97100.09;;;14.38;100.00
17505;BME280;8870;50.950;11.762;2023-03-24T11:17:10;97105.38;;;14.20;100.00
17505;BME280;8870;50.950;11.762;2023-03-24T11:22:29;97127.75;;;14.08;100.00
17505;BME280;8870;50.950;11.762;2023-03-24T11:28:02;97116.53;;;13.98;100.00
17505;BME280;8870;50.950;11.762;2023-03-24T11:33:27;97137.47;;;13.77;100.00
17505;BME280;8870;50.950;11.762;2023-03-24T11:39:02;97171.63;;;12.57;100.00
17505;BME280;8870;50.950;11.762;2023-03-24T11:44:23;97187.91;;;11.38;100.00
17505;BME280;8870;50.950;11.762;2023-03-24T11:50:12;97202.63;;;10.86;100.00
17505;BME280;8870;50.950;11.762;2023-03-24T11:55:37;97209.66;;;10.65;100.00
17505;BME280;8870;50.950;11.762;2023-03-24T12:01:22;97245.22;;;10.39;100.00
17505;BME280;8870;50.950;11.762;2023-03-24T12:06:57;97239.88;;;10.09;100.00
17505;BME280;8870;50.950;11.762;2023-03-24T12:12:37;97233.44;;;9.95;100.00
17505;BME280;8870;50.950;11.762;2023-03-24T12:18:16;97234.09;;;9.97;100.00
17505;BME280;8870;50.950;11.762;2023-03-24T12:23:56;97231.63;;;9.95;100.00
17505;BME280;8870;50.950;11.762;2023-03-24T12:29:29;97228.72;;;9.97;100.00
17505;BME280;8870;50.950;11.762;2023-03-24T12:35:38;97234.41;;;10.02;100.00
17505;BME280;8870;50.950;11.762;2023-03-24T12:41:29;97250.53;;;10.02;100.00
17505;BME280;8870;50.950;11.762;2023-03-24T12:47:12;97256.28;;;9.99;100.00
17505;BME280;8870;50.950;11.762;2023-03-24T12:52:53;97237.09;;;10.02;100.00
17505;BME280;8870;50.950;11.762;2023-03-24T12:58:38;97248.94;;;10.23;100.00
17505;BME280;8870;50.950;11.762;2023-03-24T13:04:16;97262.47;;;10.29;100.00
17505;BME280;8870;50.950;11.762;2023-03-24T13:09:40;97239.28;;;10.28;100.00
17505;BME280;8870;50.950;11.762;2023-03-24T13:15:19;97231.19;;;10.43;100.00
17505;BME280;8870;50.950;11.762;2023-03-24T13:20:41;97219.41;;;10.44;100.00
17505;BME280;8870;50.950;11.762;2023-03-24T13:26:19;97189.47;;;10.54;100.00
17505;BME280;8870;50.950;11.762;2023-03-24T13:31:46;97164.72;;;10.66;100.00
17505;BME280;8870;50.950;11.762;2023-03-24T13:37:21;97191.00;;;10.85;100.00
17505;BME280;8870;50.950;11.762;2023-03-24T13:42:51;97190.59;;;11.10;100.00
17505;BME280;8870;50.950;11.762;2023-03-24T13:48:31;97184.22;;;11.18;100.00
17505;BME280;8870;50.950;11.762;2023-03-24T13:54:09;97199.22;;;11.27;100.00
17505;BME280;8870;50.950;11.762;2023-03-24T13:59:31;97169.56;;;11.27;100.00
17505;BME280;8870;50.950;11.762;2023-03-24T14:05:08;97186.66;;;11.13;100.00
17505;BME280;8870;50.950;11.762;2023-03-24T14:10:39;97155.16;;;11.13;100.00
17505;BME280;8870;50.950;11.762;2023-03-24T14:16:33;97136.91;;;11.08;100.00
17505;BME280;8870;50.950;11.762;2023-03-24T14:22:10;97139.91;;;11.27;100.00
17505;BME280;8870;50.950;11.762;2023-03-24T14:27:42;97130.28;;;11.46;100.00
17505;BME280;8870;50.950;11.762;2023-03-24T14:33:01;97142.59;;;11.62;100.00
17505;BME280;8870;50.950;11.762;2023-03-24T14:38:39;97141.78;;;12.04;100.00
17505;BME280;8870;50.950;11.762;2023-03-24T14:43:58;97131.91;;;12.31;100.00
17505;BME280;8870;50.950;11.762;2023-03-24T14:49:32;97140.88;;;12.58;100.00
17505;BME280;8870;50.950;11.762;2023-03-24T14:55:09;97134.78;;;12.36;100.00
17505;BME280;8870;50.950;11.762;2023-03-24T15:00:35;97145.78;;;12.21;100.00
17505;BME280;8870;50.950;11.762;2023-03-24T15:06:22;97119.84;;;12.40;100.00
17505;BME280;8870;50.950;11.762;2023-03-24T15:11:45;97137.53;;;12.56;100.00
17505;BME280;8870;50.950;11.762;2023-03-24T15:17:24;97132.31;;;12.41;100.00
17505;BME280;8870;50.950;11.762;2023-03-24T15:22:42;97125.06;;;12.48;100.00
17505;BME280;8870;50.950;11.762;2023-03-24T15:28:21;97110.13;;;12.93;100.00
17505;BME280;8870;50.950;11.762;2023-03-24T15:33:42;97128.81;;;13.21;100.00
17505;BME280;8870;50.950;11.762;2023-03-24T15:39:19;97142.13;;;13.09;100.00
17505;BME280;8870;50.950;11.762;2023-03-24T15:44:40;97138.38;;;13.31;100.00
17505;BME280;8870;50.950;11.762;2023-03-24T15:50:28;97147.13;;;13.26;100.00
17505;BME280;8870;50.950;11.762;2023-03-24T15:56:00;97131.94;;;13.45;100.00
17505;BME280;8870;50.950;11.762;2023-03-24T16:01:36;97122.56;;;13.41;100.00
17505;BME280;8870;50.950;11.762;2023-03-24T16:06:56;97122.78;;;13.33;100.00
17505;BME280;8870;50.950;11.762;2023-03-24T16:12:29;97131.72;;;13.26;100.00
17505;BME280;8870;50.950;11.762;2023-03-24T16:17:50;97127.31;;;13.39;100.00
17505;BME280;8870;50.950;11.762;2023-03-24T16:23:21;97140.88;;;13.19;100.00
17505;BME280;8870;50.950;11.762;2023-03-24T16:28:40;97164.38;;;13.05;100.00
17505;BME280;8870;50.950;11.762;2023-03-24T16:34:15;97172.06;;;12.74;100.00
17505;BME280;8870;50.950;11.762;2023-03-24T16:39:34;97171.81;;;12.49;100.00
17505;BME280;8870;50.950;11.762;2023-03-24T16:45:08;97163.69;;;12.36;100.00
17505;BME280;8870;50.950;11.762;2023-03-24T16:50:37;97172.56;;;12.16;100.00
17505;BME280;8870;50.950;11.762;2023-03-24T16:56:13;97194.84;;;11.96;100.00
17505;BME280;8870;50.950;11.762;2023-03-24T17:01:33;97191.81;;;11.99;100.00
17505;BME280;8870;50.950;11.762;2023-03-24T17:07:09;97189.75;;;12.01;100.00
17505;BME280;8870;50.950;11.762;2023-03-24T17:12:27;97186.25;;;12.14;100.00
17505;BME280;8870;50.950;11.762;2023-03-24T17:17:59;97176.94;;;12.17;100.00
17505;BME280;8870;50.950;11.762;2023-03-24T17:23:22;97191.03;;;12.19;100.00
17505;BME280;8870;50.950;11.762;2023-03-24T17:28:59;97185.59;;;12.06;100.00
17505;BME280;8870;50.950;11.762;2023-03-24T17:34:17;97194.66;;;11.91;100.00
17505;BME280;8870;50.950;11.762;2023-03-24T17:39:53;97191.41;;;11.67;100.00
17505;BME280;8870;50.950;11.762;2023-03-24T17:45:14;97205.41;;;11.49;100.00
17505;BME280;8870;50.950;11.762;2023-03-24T17:50:46;97212.75;;;11.34;100.00
17505;BME280;8870;50.950;11.762;2023-03-24T17:56:20;97209.03;;;11.06;100.00
17505;BME280;8870;50.950;11.762;2023-03-24T18:01:38;97222.81;;;10.97;100.00
17505;BME280;8870;50.950;11.762;2023-03-24T18:07:10;97213.41;;;10.86;100.00
17505;BME280;8870;50.950;11.762;2023-03-24T18:12:30;97215.75;;;10.74;100.00
17505;BME280;8870;50.950;11.762;2023-03-24T18:18:01;97211.91;;;10.61;100.00
17505;BME280;8870;50.950;11.762;2023-03-24T18:23:22;97210.16;;;10.54;100.00
17505;BME280;8870;50.950;11.762;2023-03-24T18:28:56;97207.81;;;10.44;100.00
17505;BME280;8870;50.950;11.762;2023-03-24T18:34:15;97227.47;;;10.44;100.00
17505;BME280;8870;50.950;11.762;2023-03-24T18:39:47;97233.31;;;10.33;100.00
17505;BME280;8870;50.950;11.762;2023-03-24T18:45:09;97239.91;;;10.30;100.00
17505;BME280;8870;50.950;11.762;2023-03-24T18:50:41;97235.47;;;10.23;100.00
17505;BME280;8870;50.950;11.762;2023-03-24T18:56:13;97239.09;;;10.15;100.00
17505;BME280;8870;50.950;11.762;2023-03-24T19:01:34;97238.19;;;10.08;100.00
17505;BME280;8870;50.950;11.762;2023-03-24T19:07:10;97241.81;;;10.00;100.00
17505;BME280;8870;50.950;11.762;2023-03-24T19:12:28;97238.84;;;9.95;100.00
17505;BME280;8870;50.950;11.762;2023-03-24T19:18:02;97231.44;;;9.82;100.00
17505;BME280;8870;50.950;11.762;2023-03-24T19:23:20;97240.72;;;9.79;100.00
17505;BME280;8870;50.950;11.762;2023-03-24T19:28:52;97241.06;;;9.76;100.00
17505;BME280;8870;50.950;11.762;2023-03-24T19:34:15;97244.13;;;9.73;100.00
17505;BME280;8870;50.950;11.762;2023-03-24T19:39:47;97246.81;;;9.73;100.00
17505;BME280;8870;50.950;11.762;2023-03-24T19:45:08;97231.44;;;9.67;100.00
17505;BME280;8870;50.950;11.762;2023-03-24T19:50:42;97244.22;;;9.65;100.00
17505;BME280;8870;50.950;11.762;2023-03-24T19:56:14;97251.63;;;9.63;100.00
17505;BME280;8870;50.950;11.762;2023-03-24T20:01:34;97252.56;;;9.55;100.00
17505;BME280;8870;50.950;11.762;2023-03-24T20:07:08;97249.31;;;9.45;100.00
17505;BME280;8870;50.950;11.762;2023-03-24T20:12:26;97259.59;;;9.41;100.00
17505;BME280;8870;50.950;11.762;2023-03-24T20:17:57;97257.69;;;9.27;100.00
17505;BME280;8870;50.950;11.762;2023-03-24T20:23:18;97258.31;;;9.14;100.00
17505;BME280;8870;50.950;11.762;2023-03-24T20:28:51;97272.19;;;9.02;100.00
17505;BME280;8870;50.950;11.762;2023-03-24T20:34:12;97268.59;;;8.87;100.00
17505;BME280;8870;50.950;11.762;2023-03-24T20:39:46;97274.91;;;8.71;100.00
17505;BME280;8870;50.950;11.762;2023-03-24T20:45:06;97276.03;;;8.45;100.00
17505;BME280;8870;50.950;11.762;2023-03-24T20:50:39;97269.22;;;8.34;100.00
17505;BME280;8870;50.950;11.762;2023-03-24T20:56:13;97279.13;;;8.33;100.00
17505;BME280;8870;50.950;11.762;2023-03-24T21:01:33;97274.22;;;8.37;100.00
17505;BME280;8870;50.950;11.762;2023-03-24T21:07:05;97268.00;;;8.45;100.00
17505;BME280;8870;50.950;11.762;2023-03-24T21:12:25;97268.19;;;8.43;100.00
17505;BME280;8870;50.950;11.762;2023-03-24T21:18:08;97277.75;;;8.38;100.00
17505;BME280;8870;50.950;11.762;2023-03-24T21:23:27;97282.25;;;8.45;100.00
17505;BME280;8870;50.950;11.762;2023-03-24T21:29:02;97279.72;;;8.44;100.00
17505;BME280;8870;50.950;11.762;2023-03-24T21:34:21;97278.69;;;8.53;100.00
17505;BME280;8870;50.950;11.762;2023-03-24T21:39:52;97275.81;;;8.63;100.00
17505;BME280;8870;50.950;11.762;2023-03-24T21:45:15;97273.38;;;8.76;100.00
17505;BME280;8870;50.950;11.762;2023-03-24T21:50:49;97258.19;;;8.84;100.00
17505;BME280;8870;50.950;11.762;2023-03-24T21:56:21;97251.88;;;9.00;100.00
17505;BME280;8870;50.950;11.762;2023-03-24T22:01:41;97247.09;;;9.10;100.00
17505;BME280;8870;50.950;11.762;2023-03-24T22:07:13;97245.16;;;9.19;100.00
17505;BME280;8870;50.950;11.762;2023-03-24T22:12:37;97253.34;;;9.25;100.00
17505;BME280;8870;50.950;11.762;2023-03-24T22:18:11;97244.91;;;9.29;100.00
17505;BME280;8870;50.950;11.762;2023-03-24T22:23:30;97239.19;;;9.32;100.00
17505;BME280;8870;50.950;11.762;2023-03-24T22:29:03;97246.13;;;9.26;100.00
17505;BME280;8870;50.950;11.762;2023-03-24T22:34:24;97264.09;;;9.25;100.00
17505;BME280;8870;50.950;11.762;2023-03-24T22:39:56;97283.00;;;9.32;100.00
17505;BME280;8870;50.950;11.762;2023-03-24T22:45:15;97279.34;;;9.48;100.00
17505;BME280;8870;50.950;11.762;2023-03-24T22:50:48;97279.34;;;9.48;100.00
17505;BME280;8870;50.950;11.762;2023-03-24T22:56:21;97282.75;;;9.42;100.00
17505;BME280;8870;50.950;11.762;2023-03-24T23:01:39;97257.72;;;9.41;100.00
17505;BME280;8870;50.950;11.762;2023-03-24T23:07:25;97270.22;;;9.34;100.00
17505;BME280;8870;50.950;11.762;2023-03-24T23:12:44;97267.44;;;9.28;100.00
17505;BME280;8870;50.950;11.762;2023-03-24T23:18:16;97262.25;;;9.26;100.00
17505;BME280;8870;50.950;11.762;2023-03-24T23:23:38;97257.00;;;9.33;100.00
17505;BME280;8870;50.950;11.762;2023-03-24T23:29:09;97255.38;;;9.23;100.00
17505;BME280;8870;50.950;11.762;2023-03-24T23:34:27;97263.03;;;9.12;100.00
17505;BME280;8870;50.950;11.762;2023-03-24T23:40:03;97257.44;;;8.98;100.00
17505;BME280;8870;50.950;11.762;2023-03-24T23:45:36;97252.94;;;8.90;100.00
17505;BME280;8870;50.950;11.762;2023-03-24T23:50:54;97267.28;;;8.83;100.00
17505;BME280;8870;50.950;11.762;2023-03-24T23:56:28;97269.56;;;8.71;100.00
